Butts AAF (Fort Carson) Air Field Fort Carson US
ICAO: KFCS
IATA: FCS
Category: Medium
Scheduled Services: No

Elevation: 5838 ft
TransAlt. 18000 ft.

Airport Communications:
SPRINGS APP/DEP:124
FLT FLW:38.35
ATIS:108.8
PMSV METRO:44.1
PTD/OPS:141.15
TWR:125.5

KFCS Zoom In..

If you have problems with the map follow the link
https://www.worldairports.se/pages/airport.php?
ICAO=KFCS

Runways:

(A) RW 04 length 2307 ft width 75 ft
---- / hdg 39

(B) RW 13 length 4572 ft width 75 ft
---- / hdg 126

(C) RW 22 length 2307 ft width 75 ft
---- / hdg 219

(D) RW 31 length 4572 ft width 75 ft
---- / hdg 306

Location; KFCS
Day. 22 / Time. 11.58 Zulu
* Altimeter: 30.18
* Temperature: 07° c. 44.6°f.
* Wind from: 340° Speed 10 kn.
Dewpoint: -04° c.
Visibility: 4 Statute Miles.
Clouds: Clear (automated report).
Conditions: Haze.

KFCS 221158Z AUTO 34010KT 4SM HZ CLR 07/M04 A3018 RMK AO2 SLP199 T00691036 10080 20060 53003 $


Wind From 340°
Speed 10 kn.

 
 
jpsmedia.com for Web Design worldairports.se 2018   terms of use